Simi, Greece
Current Conditions -  °F | °C
As of 11:50 AM on Thursday 23 Oct 2014 (Local Time) from LGRP Reporting Station
Broken Clouds Broken Clouds  
Wind Chill: 75°   Ceiling: 18000
Heat Index: 75°   Visibility: 6mi
Dew Point: 59°   Wind: 7mph
Humidity: 57%   Direction: 180°S
Pressure: 29.8"   Gusts: 23mph
Location:  36.61°N, 27.84°E
Report Text: LGRP 230950Z 18006G20KT 120V240 9999 FEW010 FEW018TCU SCT025BKN180 24/15 Q1009 WS R07 TEMPO SHRA
Loading
Personal Weather Stations






























Interactive Weather Map
Tropical Storm Tracking
New forecast layout! Learn more

10-Day Weather Forecast

Advertisements
Track Severe Weather on mobile